createdAt,value
2022-09-17T00:01:27.380Z,99576.28
2022-09-17T00:03:57.318Z,99583.72
2022-09-17T00:06:26.556Z,99559.88
2022-09-17T00:08:55.468Z,99580.56
2022-09-17T00:11:26.586Z,99578.75
2022-09-17T00:13:55.971Z,99594.19
2022-09-17T00:16:27.485Z,99596.66
2022-09-17T00:18:55.822Z,99589.91
2022-09-17T00:21:24.037Z,99593.38
2022-09-17T00:23:56.303Z,99595.59
2022-09-17T00:26:26.135Z,99602.69
2022-09-17T00:28:55.209Z,99597.75
2022-09-17T00:31:23.943Z,99585.47
2022-09-17T00:33:52.738Z,99548.31
2022-09-17T00:36:21.652Z,99578.97
2022-09-17T00:38:51.340Z,99574.69
2022-09-17T00:41:19.704Z,99566.97
2022-09-17T00:43:52.108Z,99559.56
2022-09-17T00:46:34.289Z,99572.47
2022-09-17T00:49:07.322Z,99570.47
2022-09-17T00:51:38.518Z,99553.38
2022-09-17T00:54:09.740Z,99573.09
2022-09-17T00:56:40.609Z,99560.31
2022-09-17T00:59:10.037Z,99572.78
2022-09-17T01:01:39.119Z,99561.28
2022-09-17T01:04:07.156Z,99564.56
2022-09-17T01:06:39.751Z,99555.66
2022-09-17T01:09:23.426Z,99561.28
2022-09-17T01:12:14.978Z,99569.16
2022-09-17T01:14:58.724Z,99560.94
2022-09-17T01:17:33.934Z,99569.22
2022-09-17T01:20:37.241Z,99559.53
2022-09-17T01:23:34.722Z,99561.34
2022-09-17T01:26:29.806Z,99555.81
2022-09-17T01:29:10.554Z,99556.16
2022-09-17T01:31:47.406Z,99545.66
2022-09-17T01:34:25.082Z,99547.47
2022-09-17T01:37:03.418Z,99545.00
2022-09-17T01:39:43.054Z,99548.31
2022-09-17T01:42:20.171Z,99549.13
2022-09-17T01:44:57.664Z,99533.84
2022-09-17T01:47:31.757Z,99540.25
2022-09-17T01:50:04.593Z,99539.88
2022-09-17T01:52:35.579Z,99534.13
2022-09-17T01:55:07.091Z,99526.34
2022-09-17T01:57:41.329Z,99534.06
2022-09-17T02:00:12.122Z,99514.66
2022-09-17T02:02:47.254Z,99519.22
2022-09-17T02:05:19.277Z,99525.31
2022-09-17T02:07:53.573Z,99522.16
2022-09-17T02:10:25.619Z,99516.72
2022-09-17T02:12:58.105Z,99512.44
2022-09-17T02:15:30.105Z,99519.34
2022-09-17T02:18:04.838Z,99502.44
2022-09-17T02:20:40.430Z,99520.34
2022-09-17T02:23:15.457Z,99516.91
2022-09-17T02:25:48.660Z,99514.91
2022-09-17T02:28:25.497Z,99495.50
2022-09-17T02:30:53.484Z,99501.22
2022-09-17T02:33:23.737Z,99503.22
2022-09-17T02:35:52.001Z,99489.84
2022-09-17T02:38:24.633Z,99499.94
2022-09-17T02:40:57.639Z,99492.69
2022-09-17T02:43:36.850Z,99486.06
2022-09-17T02:46:22.865Z,99488.59
2022-09-17T02:49:10.409Z,99500.38
2022-09-17T02:51:48.521Z,99501.69
2022-09-17T02:54:25.811Z,99496.59
2022-09-17T02:57:02.409Z,99491.50
2022-09-17T02:59:41.955Z,99488.22
2022-09-17T03:02:17.560Z,99479.81
2022-09-17T03:04:49.767Z,99459.91
2022-09-17T03:07:20.539Z,99462.59
2022-09-17T03:09:48.477Z,99465.28
2022-09-17T03:12:16.869Z,99462.50
2022-09-17T03:14:44.785Z,99457.66
2022-09-17T03:17:14.938Z,99464.50
2022-09-17T03:19:42.871Z,99451.00
2022-09-17T03:22:12.622Z,99447.38
2022-09-17T03:24:40.765Z,99435.75
2022-09-17T03:27:08.762Z,99446.41
2022-09-17T03:29:36.751Z,99445.41
2022-09-17T03:32:05.512Z,99439.00
2022-09-17T03:34:33.470Z,99433.56
2022-09-17T03:37:01.414Z,99423.41
2022-09-17T03:39:31.253Z,99417.19
2022-09-17T03:41:59.182Z,99405.72
2022-09-17T03:44:27.133Z,99395.88
2022-09-17T03:46:55.098Z,99392.09
2022-09-17T03:49:23.971Z,99390.75
2022-09-17T03:51:51.962Z,99394.41
2022-09-17T03:54:19.875Z,99391.16
2022-09-17T03:56:49.161Z,99388.53
2022-09-17T03:59:17.195Z,99390.56
2022-09-17T04:01:45.209Z,99398.22
2022-09-17T04:04:13.182Z,99395.72
2022-09-17T04:06:41.084Z,99381.91
2022-09-17T04:09:09.045Z,99378.66
2022-09-17T04:11:36.990Z,99363.00
2022-09-17T04:14:06.375Z,99372.97
2022-09-17T04:16:34.322Z,99361.38
2022-09-17T04:19:02.282Z,99372.84
2022-09-17T04:21:30.178Z,99383.34
2022-09-17T04:23:58.346Z,99397.75
2022-09-17T04:26:26.270Z,99387.31
2022-09-17T04:28:54.179Z,99405.63
2022-09-17T04:31:25.128Z,99399.75
2022-09-17T04:33:53.090Z,99399.63
2022-09-17T04:36:21.090Z,99383.50
2022-09-17T04:38:49.709Z,99366.66
2022-09-17T04:41:17.926Z,99376.84
2022-09-17T04:43:45.860Z,99378.41
2022-09-17T04:46:14.753Z,99392.72
2022-09-17T04:48:44.144Z,99388.09
2022-09-17T04:51:12.306Z,99385.06
2022-09-17T04:53:40.197Z,99370.72
2022-09-17T04:56:08.090Z,99367.41
2022-09-17T04:58:36.027Z,99370.31
2022-09-17T05:01:04.226Z,99378.28
2022-09-17T05:03:32.221Z,99377.16
2022-09-17T05:06:01.928Z,99379.22
2022-09-17T05:08:29.838Z,99369.25
2022-09-17T05:10:57.754Z,99377.44
2022-09-17T05:13:25.720Z,99376.97
2022-09-17T05:15:56.591Z,99368.44
2022-09-17T05:18:25.051Z,99366.69
2022-09-17T05:20:53.222Z,99370.88
2022-09-17T05:23:22.546Z,99377.31
2022-09-17T05:25:50.776Z,99381.13
2022-09-17T05:28:18.695Z,99375.13
2022-09-17T05:30:46.745Z,99383.94
2022-09-17T05:33:14.655Z,99379.66
2022-09-17T05:35:44.205Z,99371.56
2022-09-17T05:38:12.270Z,99380.41
2022-09-17T05:40:41.609Z,99378.94
2022-09-17T05:43:10.735Z,99377.34
2022-09-17T05:45:39.021Z,99379.91
2022-09-17T05:48:09.013Z,99367.75
2022-09-17T05:50:37.022Z,99367.81
2022-09-17T05:53:06.358Z,99370.94
2022-09-17T05:55:35.108Z,99377.78
2022-09-17T05:58:11.197Z,99375.94
2022-09-17T06:00:41.486Z,99368.44
2022-09-17T06:03:10.157Z,99374.22
2022-09-17T06:05:38.167Z,99362.91
2022-09-17T06:08:06.721Z,99365.41
2022-09-17T06:10:37.737Z,99367.44
2022-09-17T06:13:07.062Z,99375.63
2022-09-17T06:15:35.012Z,99380.13
2022-09-17T06:18:02.997Z,99386.72
2022-09-17T06:20:30.942Z,99368.69
2022-09-17T06:22:59.294Z,99363.22
2022-09-17T06:25:27.606Z,99359.19
2022-09-17T06:27:55.509Z,99357.56
2022-09-17T06:30:24.834Z,99348.00
2022-09-17T06:32:53.016Z,99346.00
2022-09-17T06:35:21.072Z,99351.72
2022-09-17T06:37:49.069Z,99351.13
2022-09-17T06:40:17.825Z,99341.63
2022-09-17T06:42:45.802Z,99339.78
2022-09-17T06:45:16.743Z,99357.22
2022-09-17T06:47:47.490Z,99362.13
2022-09-17T06:50:15.513Z,99369.91
2022-09-17T06:52:49.437Z,99364.81
2022-09-17T06:55:18.169Z,99377.84
2022-09-17T06:57:46.320Z,99389.69
2022-09-17T07:00:15.521Z,99376.66
2022-09-17T07:02:43.440Z,99373.84
2022-09-17T07:05:12.816Z,99362.09
2022-09-17T07:07:41.009Z,99356.31
2022-09-17T07:10:09.782Z,99313.66
2022-09-17T07:12:42.913Z,99365.13
2022-09-17T07:15:13.980Z,99370.47
2022-09-17T07:17:41.923Z,99367.03
2022-09-17T07:20:12.703Z,99364.81
2022-09-17T07:22:40.744Z,99363.44
2022-09-17T07:25:09.595Z,99363.88
2022-09-17T07:27:37.526Z,99365.94
2022-09-17T07:30:06.378Z,99368.94
2022-09-17T07:32:34.295Z,99367.72
2022-09-17T07:35:02.224Z,99376.53
2022-09-17T07:37:31.523Z,99391.41
2022-09-17T07:39:59.513Z,99388.97
2022-09-17T07:42:27.736Z,99384.91
2022-09-17T07:44:59.817Z,99377.78
2022-09-17T07:47:29.967Z,99361.69
2022-09-17T07:49:57.904Z,99358.50
2022-09-17T07:52:25.897Z,99347.31
2022-09-17T07:54:55.181Z,99343.03
2022-09-17T07:57:23.074Z,99354.03
2022-09-17T07:59:50.989Z,99350.38
2022-09-17T08:02:23.759Z,99346.09
2022-09-17T08:04:52.178Z,99354.81
2022-09-17T08:07:20.100Z,99355.84
2022-09-17T08:09:48.005Z,99350.34
2022-09-17T08:12:18.471Z,99337.69
2022-09-17T08:14:46.423Z,99355.25
2022-09-17T08:17:14.321Z,99371.09
2022-09-17T08:19:42.997Z,99372.84
2022-09-17T08:22:10.952Z,99355.50
2022-09-17T08:24:38.902Z,99372.34
2022-09-17T08:27:06.854Z,99368.09
2022-09-17T08:29:36.148Z,99368.63
2022-09-17T08:32:04.510Z,99367.13
2022-09-17T08:34:32.420Z,99352.00
2022-09-17T08:37:00.362Z,99354.72
2022-09-17T08:39:28.254Z,99354.06
2022-09-17T08:42:06.726Z,99362.25
2022-09-17T08:44:42.500Z,99362.97
2022-09-17T08:47:18.584Z,99365.84
2022-09-17T08:49:52.158Z,99375.72
2022-09-17T08:52:34.603Z,99361.22
2022-09-17T08:55:12.402Z,99365.28
2022-09-17T08:57:47.471Z,99356.06
2022-09-17T09:00:20.054Z,99360.59
2022-09-17T09:03:05.840Z,99356.91
2022-09-17T09:05:42.454Z,99354.41
2022-09-17T09:08:18.264Z,99369.34
2022-09-17T09:10:51.286Z,99368.47
2022-09-17T09:13:23.396Z,99372.75
2022-09-17T09:15:59.442Z,99380.44
2022-09-17T09:18:30.710Z,99389.00
2022-09-17T09:21:12.217Z,99384.22
2022-09-17T09:23:52.578Z,99393.22
2022-09-17T09:26:22.125Z,99394.47
2022-09-17T09:29:06.602Z,99396.78
2022-09-17T09:32:01.667Z,99395.06
2022-09-17T09:34:31.211Z,99398.47
2022-09-17T09:37:14.445Z,99376.59
2022-09-17T09:39:46.187Z,99377.47
2022-09-17T09:42:21.726Z,99375.59
2022-09-17T09:44:50.488Z,99372.44
2022-09-17T09:47:35.276Z,99367.66
2022-09-17T09:50:22.797Z,99369.78
2022-09-17T09:53:04.173Z,99380.88
2022-09-17T09:55:55.002Z,99378.28
2022-09-17T09:58:29.213Z,99364.09
2022-09-17T10:00:57.148Z,99379.03
2022-09-17T10:03:32.194Z,99371.72
2022-09-17T10:06:02.190Z,99362.66
2022-09-17T10:08:33.067Z,99362.19
2022-09-17T10:11:02.895Z,99364.31
2022-09-17T10:13:32.445Z,99361.59
2022-09-17T10:16:18.953Z,99365.06
2022-09-17T10:18:49.482Z,99358.56
2022-09-17T10:21:22.394Z,99361.34
2022-09-17T10:23:51.524Z,99366.53
2022-09-17T10:26:26.167Z,99362.16
2022-09-17T10:28:56.921Z,99364.59
2022-09-17T10:31:25.380Z,99365.19
2022-09-17T10:34:03.359Z,99376.44
2022-09-17T10:36:43.334Z,99367.84
2022-09-17T10:39:34.180Z,99379.19
2022-09-17T10:42:04.123Z,99366.97
2022-09-17T10:44:35.551Z,99374.22
2022-09-17T10:47:07.535Z,99376.13
2022-09-17T10:49:45.536Z,99377.03
2022-09-17T10:52:25.383Z,99384.06
2022-09-17T10:55:20.912Z,99380.81
2022-09-17T10:58:02.129Z,99379.72
2022-09-17T11:00:40.007Z,99383.25
2022-09-17T11:03:45.284Z,99390.63
2022-09-17T11:06:27.604Z,99390.91
2022-09-17T11:09:06.627Z,99382.41
2022-09-17T11:11:48.258Z,99398.16
2022-09-17T11:14:33.651Z,99395.53
2022-09-17T11:17:11.909Z,99381.75
2022-09-17T11:19:49.764Z,99391.47
2022-09-17T11:22:24.982Z,99388.28
2022-09-17T11:25:15.689Z,99394.72
2022-09-17T11:27:57.150Z,99393.00
2022-09-17T11:30:27.222Z,99414.00
2022-09-17T11:33:10.619Z,99422.59
2022-09-17T11:35:42.343Z,99425.94
2022-09-17T11:38:18.360Z,99437.03
2022-09-17T11:40:49.738Z,99446.66
2022-09-17T11:43:27.397Z,99460.59
2022-09-17T11:46:01.713Z,99475.09
2022-09-17T11:48:37.623Z,99473.78
2022-09-17T11:51:16.006Z,99463.75
2022-09-17T11:53:49.432Z,99483.28
2022-09-17T11:56:21.859Z,99483.91
2022-09-17T11:58:53.252Z,99475.69
2022-09-17T12:01:29.942Z,99477.06
2022-09-17T12:04:01.834Z,99476.38
2022-09-17T12:06:39.592Z,99471.75
2022-09-17T12:09:15.288Z,99483.56
2022-09-17T12:11:48.383Z,99491.31
2022-09-17T12:14:22.965Z,99478.72
2022-09-17T12:16:53.844Z,99483.03
2022-09-17T12:19:26.777Z,99474.97
2022-09-17T12:21:59.289Z,99477.81
2022-09-17T12:24:30.543Z,99467.44
2022-09-17T12:27:11.166Z,99451.63
2022-09-17T12:29:52.050Z,99434.19
2022-09-17T12:32:36.105Z,99405.66
2022-09-17T12:35:19.390Z,99420.78
2022-09-17T12:38:01.737Z,99420.25
2022-09-17T12:40:36.519Z,99418.91
2022-09-17T12:43:28.619Z,99430.34
2022-09-17T12:46:15.757Z,99434.94
2022-09-17T12:49:15.672Z,99395.28
2022-09-17T12:51:54.804Z,99440.69
2022-09-17T12:54:58.695Z,99436.63
2022-09-17T12:57:38.265Z,99420.66
2022-09-17T13:00:11.447Z,99406.56
2022-09-17T13:02:43.490Z,99408.38
2022-09-17T13:05:36.356Z,99382.63
2022-09-17T13:08:35.253Z,99385.03
2022-09-17T13:11:20.842Z,99382.97
2022-09-17T13:13:56.831Z,99364.19
2022-09-17T13:16:33.593Z,99376.84
2022-09-17T13:19:23.119Z,99368.44
2022-09-17T13:21:55.783Z,99362.31
2022-09-17T13:24:25.685Z,99358.13
2022-09-17T13:26:56.121Z,99341.44
2022-09-17T13:30:02.082Z,99352.41
2022-09-17T13:32:51.101Z,99344.72
2022-09-17T13:35:53.028Z,99334.00
2022-09-17T13:38:24.634Z,99324.63
2022-09-17T13:40:53.341Z,99310.34
2022-09-17T13:43:27.173Z,99303.72
2022-09-17T13:46:15.412Z,99283.69
2022-09-17T13:48:53.735Z,99280.06
2022-09-17T13:51:53.148Z,99287.00
2022-09-17T13:54:23.795Z,99280.88
2022-09-17T13:57:12.097Z,99273.53
2022-09-17T13:59:52.720Z,99269.38
2022-09-17T14:02:38.058Z,99253.53
2022-09-17T14:05:26.599Z,99245.41
2022-09-17T14:08:12.886Z,99255.91
2022-09-17T14:10:45.124Z,99247.16
2022-09-17T14:13:41.317Z,99235.53
2022-09-17T14:16:47.186Z,99222.88
2022-09-17T14:19:28.114Z,99211.59
2022-09-17T14:22:02.385Z,99209.09
2022-09-17T14:24:37.202Z,99209.25
2022-09-17T14:27:16.921Z,99192.72
2022-09-17T14:30:11.502Z,99177.59
2022-09-17T14:32:43.794Z,99164.97
2022-09-17T14:35:20.443Z,99164.53
2022-09-17T14:37:54.917Z,99152.41
2022-09-17T14:40:24.320Z,99158.41
2022-09-17T14:42:56.974Z,99174.38
2022-09-17T14:45:33.003Z,99193.31
2022-09-17T14:48:21.054Z,99203.53
2022-09-17T14:50:50.344Z,99215.41
2022-09-17T14:53:21.121Z,99220.78
2022-09-17T14:55:51.361Z,99220.38
2022-09-17T14:58:38.734Z,99232.28
2022-09-17T15:01:07.561Z,99235.72
2022-09-17T15:03:35.493Z,99245.44
2022-09-17T15:06:05.006Z,99247.09
2022-09-17T15:08:33.422Z,99255.53
2022-09-17T15:11:03.475Z,99252.81
2022-09-17T15:13:33.231Z,99260.56
2022-09-17T15:16:05.045Z,99269.34
2022-09-17T15:18:37.379Z,99259.75
2022-09-17T15:21:16.363Z,99256.13
2022-09-17T15:23:45.357Z,99260.94
2022-09-17T15:26:23.845Z,99242.22
2022-09-17T15:28:52.330Z,99261.78
2022-09-17T15:31:21.406Z,99254.28
2022-09-17T15:33:49.748Z,99256.50
2022-09-17T15:36:23.007Z,99233.31
2022-09-17T15:38:51.946Z,99271.41
2022-09-17T15:41:30.796Z,99266.72
2022-09-17T15:44:29.004Z,99255.72
2022-09-17T15:46:57.867Z,99256.72
2022-09-17T15:49:31.806Z,99271.00
2022-09-17T15:52:28.334Z,99246.56
2022-09-17T15:54:56.282Z,99253.50
2022-09-17T15:57:26.878Z,99250.84
2022-09-17T15:59:55.905Z,99245.53
2022-09-17T16:02:29.045Z,99247.00
2022-09-17T16:05:55.714Z,99244.34
2022-09-17T16:08:35.243Z,99243.97
2022-09-17T16:11:03.161Z,99239.69
2022-09-17T16:13:31.074Z,99238.47
2022-09-17T16:15:59.100Z,99237.22
2022-09-17T16:18:27.739Z,99231.13
2022-09-17T16:20:55.639Z,99216.66
2022-09-17T16:23:24.945Z,99215.66
2022-09-17T16:25:53.306Z,99211.78
2022-09-17T16:28:21.473Z,99213.41
2022-09-17T16:30:50.544Z,99210.56
2022-09-17T16:33:19.369Z,99207.50
2022-09-17T16:35:47.284Z,99215.44
2022-09-17T16:38:15.268Z,99222.41
2022-09-17T16:40:47.240Z,99222.56
2022-09-17T16:43:15.820Z,99220.97
2022-09-17T16:45:43.762Z,99212.59
2022-09-17T16:48:11.810Z,99217.06
2022-09-17T16:50:41.986Z,99209.31
2022-09-17T16:53:09.931Z,99222.38
2022-09-17T16:55:37.972Z,99212.19
2022-09-17T16:58:07.282Z,99208.53
2022-09-17T17:00:36.160Z,99209.53
2022-09-17T17:03:06.891Z,99210.97
2022-09-17T17:05:38.029Z,99212.81
2022-09-17T17:08:06.995Z,99207.91
2022-09-17T17:10:35.398Z,99212.78
2022-09-17T17:13:03.309Z,99212.41
2022-09-17T17:15:32.730Z,99209.13
2022-09-17T17:18:00.650Z,99204.44
2022-09-17T17:20:28.563Z,99207.09
2022-09-17T17:22:56.568Z,99198.53
2022-09-17T17:25:24.863Z,99204.44
2022-09-17T17:27:52.824Z,99194.88
2022-09-17T17:30:20.799Z,99210.56
2022-09-17T17:32:53.520Z,99200.38
2022-09-17T17:35:21.918Z,99187.13
2022-09-17T17:37:50.671Z,99169.00
2022-09-17T17:40:18.717Z,99149.66
2022-09-17T17:42:47.604Z,99136.03
2022-09-17T17:45:15.980Z,99130.16
2022-09-17T17:47:43.886Z,99129.69
2022-09-17T17:50:13.202Z,99136.03
2022-09-17T17:52:43.565Z,99141.09
2022-09-17T17:55:11.604Z,99144.78
2022-09-17T17:57:39.579Z,99145.81
2022-09-17T18:00:09.145Z,99157.78
2022-09-17T18:02:37.149Z,99164.72
2022-09-17T18:05:05.334Z,99171.19
2022-09-17T18:07:34.802Z,99169.34
2022-09-17T18:10:02.766Z,99177.09
2022-09-17T18:12:30.704Z,99178.69
2022-09-17T18:14:58.617Z,99184.41
2022-09-17T18:17:26.544Z,99193.53
2022-09-17T18:19:56.424Z,99197.81
2022-09-17T18:22:24.360Z,99194.94
2022-09-17T18:24:53.687Z,99194.09
2022-09-17T18:27:21.595Z,99197.38
2022-09-17T18:29:49.630Z,99194.72
2022-09-17T18:32:17.538Z,99205.69
2022-09-17T18:34:45.461Z,99214.88
2022-09-17T18:37:13.400Z,99190.84
2022-09-17T18:42:30.641Z,99201.41
2022-09-17T18:44:58.559Z,99204.63
2022-09-17T18:47:26.511Z,99183.84
2022-09-17T18:49:54.527Z,99205.63
2022-09-17T18:52:22.597Z,99208.66
2022-09-17T18:54:50.492Z,99210.22
2022-09-17T18:57:18.405Z,99199.81
2022-09-17T18:59:47.758Z,99167.19
2022-09-17T19:02:15.771Z,99201.19
2022-09-17T19:04:43.775Z,99201.38
2022-09-17T19:07:11.692Z,99200.38
2022-09-17T19:09:39.583Z,99197.69
2022-09-17T19:12:07.672Z,99189.72
2022-09-17T19:14:35.590Z,99188.91
2022-09-17T19:17:04.920Z,99179.47
2022-09-17T19:19:32.865Z,99181.47
2022-09-17T19:22:00.789Z,99177.06
2022-09-17T19:24:28.725Z,99164.09
2022-09-17T19:26:56.612Z,99149.94
2022-09-17T19:29:24.603Z,99144.09
2022-09-17T19:31:52.529Z,99130.88
2022-09-17T19:34:21.838Z,99130.91
2022-09-17T19:36:49.773Z,99116.28
2022-09-17T19:39:17.935Z,99107.34
2022-09-17T19:41:45.833Z,99091.09
2022-09-17T19:44:13.731Z,99094.75
2022-09-17T19:46:41.802Z,99083.56
2022-09-17T19:49:10.879Z,99074.81
2022-09-17T19:51:40.205Z,99073.84
2022-09-17T19:54:09.606Z,99069.16
2022-09-17T19:56:37.525Z,99052.28
2022-09-17T19:59:05.539Z,99058.97
2022-09-17T20:01:34.927Z,99067.09
2022-09-17T20:04:03.491Z,99056.13
2022-09-17T20:06:34.080Z,99059.59
2022-09-17T20:09:03.522Z,99063.84
2022-09-17T20:11:31.458Z,99044.50
2022-09-17T20:14:03.109Z,99052.44
2022-09-17T20:16:31.635Z,99050.97
2022-09-17T20:18:59.821Z,99048.38
2022-09-17T20:21:29.910Z,99021.97
2022-09-17T20:23:58.480Z,99019.25
2022-09-17T20:26:28.508Z,99020.28
2022-09-17T20:28:56.635Z,99029.00
2022-09-17T20:31:25.829Z,99031.66
2022-09-17T20:33:54.494Z,99041.41
2022-09-17T20:36:25.286Z,99040.56
2022-09-17T20:41:43.199Z,99041.97
2022-09-17T20:44:11.291Z,99048.47
2022-09-17T20:46:39.274Z,99053.75
2022-09-17T20:49:07.405Z,99053.59
2022-09-17T20:51:35.463Z,99041.97
2022-09-17T20:54:03.498Z,99043.78
2022-09-17T20:56:33.666Z,99042.19
2022-09-17T20:59:09.448Z,99048.09
2022-09-17T21:01:38.078Z,99042.59
2022-09-17T21:04:08.293Z,99042.19
2022-09-17T21:06:38.301Z,99044.59
2022-09-17T21:09:07.410Z,99045.03
2022-09-17T21:11:35.921Z,99047.44
2022-09-17T21:14:05.461Z,99045.59
2022-09-17T21:16:33.419Z,99043.41
2022-09-17T21:19:03.501Z,99034.47
2022-09-17T21:21:34.502Z,99022.66
2022-09-17T21:24:03.496Z,99014.91
2022-09-17T21:26:32.063Z,99014.91
2022-09-17T21:28:59.990Z,99002.91
2022-09-17T21:31:32.941Z,98999.00
2022-09-17T21:34:03.649Z,98997.81
2022-09-17T21:36:33.647Z,98991.09
2022-09-17T21:39:02.802Z,98983.56
2022-09-17T21:41:31.713Z,98985.19
2022-09-17T21:43:59.736Z,98987.00
2022-09-17T21:46:30.396Z,98985.56
2022-09-17T21:49:00.145Z,98991.00
2022-09-17T21:51:30.659Z,98991.75
2022-09-17T21:54:00.614Z,98993.94
2022-09-17T21:56:29.834Z,98967.25
2022-09-17T21:58:59.932Z,98983.19
2022-09-17T22:01:32.329Z,98975.41
2022-09-17T22:04:02.142Z,98977.44
2022-09-17T22:06:31.825Z,98983.31
2022-09-17T22:09:02.163Z,98988.94
2022-09-17T22:11:33.760Z,98977.16
2022-09-17T22:14:05.253Z,98985.88
2022-09-17T22:16:36.078Z,98979.22
2022-09-17T22:19:05.762Z,98979.59
2022-09-17T22:21:36.165Z,98981.53
2022-09-17T22:24:05.110Z,98954.72
2022-09-17T22:26:34.562Z,98967.53
2022-09-17T22:29:03.012Z,98977.41
2022-09-17T22:31:31.511Z,98968.41
2022-09-17T22:34:01.394Z,98967.78
2022-09-17T22:36:30.237Z,98973.72
2022-09-17T22:38:59.608Z,98964.81
2022-09-17T22:41:29.089Z,98962.63
2022-09-17T22:43:58.906Z,98963.41
2022-09-17T22:46:29.179Z,98969.44
2022-09-17T22:48:57.593Z,98958.47
2022-09-17T22:51:28.647Z,98954.19
2022-09-17T22:53:56.772Z,98962.09
2022-09-17T22:56:25.362Z,98960.44
2022-09-17T22:58:53.255Z,98968.34
2022-09-17T23:01:23.866Z,98961.34
2022-09-17T23:03:53.624Z,98948.19
2022-09-17T23:06:23.894Z,98952.50
2022-09-17T23:08:53.837Z,98936.19
2022-09-17T23:11:24.226Z,98942.75
2022-09-17T23:13:52.757Z,98931.47
2022-09-17T23:16:21.123Z,98948.84
2022-09-17T23:18:49.088Z,98954.53
2022-09-17T23:21:18.704Z,98948.09
2022-09-17T23:23:48.783Z,98935.94
2022-09-17T23:26:20.373Z,98937.31
2022-09-17T23:28:48.856Z,98937.44
2022-09-17T23:31:18.352Z,98938.50
2022-09-17T23:33:46.945Z,98937.63
2022-09-17T23:36:17.011Z,98942.06
2022-09-17T23:38:46.102Z,98931.53
2022-09-17T23:41:17.117Z,98945.75
2022-09-17T23:43:48.837Z,98937.22
2022-09-17T23:46:17.688Z,98926.13
2022-09-17T23:48:45.752Z,98944.72
2022-09-17T23:51:13.937Z,98939.44
2022-09-17T23:53:41.879Z,98942.69
2022-09-17T23:56:13.622Z,98946.94
2022-09-17T23:58:41.828Z,98943.06
